Time,TemperatureF,DewpointF,PressureIn,WindDirection,WindDirectionDegrees,WindSpeedMPH,WindSpeedGustMPH,Humidity,HourlyPrecipIn,Conditions,Clouds,dailyrainin,SoftwareType,DateUTC
2013-06-11 00:01:00,55.9,52.0,29.95,SSE,154,0.0,-999.0,85,-99.99,,,0.00,weatherlink.com 1.10,2013-06-11 07:01:00,
2013-06-11 00:16:00,55.9,52.0,29.95,SSE,154,0.0,-999.0,85,-99.99,,,0.00,weatherlink.com 1.10,2013-06-11 07:16:00,
2013-06-11 00:31:00,56.0,52.0,29.95,SSE,154,0.0,-999.0,85,-99.99,,,0.00,weatherlink.com 1.10,2013-06-11 07:31:00,
2013-06-11 00:46:00,56.2,52.0,29.95,SSE,154,0.0,-999.0,84,-99.99,,,0.00,weatherlink.com 1.10,2013-06-11 07:46:00,
2013-06-11 01:01:00,56.3,52.0,29.95,SSE,154,0.0,-999.0,84,-99.99,,,0.00,weatherlink.com 1.10,2013-06-11 08:01:00,
2013-06-11 01:16:00,56.3,51.0,29.95,SSE,154,0.0,-999.0,83,-99.99,,,0.00,weatherlink.com 1.10,2013-06-11 08:16:00,
2013-06-11 01:31:00,56.5,51.0,29.95,SSE,154,0.0,-999.0,83,-99.99,,,0.00,weatherlink.com 1.10,2013-06-11 08:31:00,
2013-06-11 01:46:00,56.6,52.0,29.94,SSE,154,0.0,-999.0,83,-99.99,,,0.00,weatherlink.com 1.10,2013-06-11 08:46:00,
2013-06-11 02:01:00,56.7,51.0,29.94,SSE,154,0.0,-999.0,82,-99.99,,,0.00,weatherlink.com 1.10,2013-06-11 09:01:00,
2013-06-11 02:16:00,56.7,51.0,29.94,SSE,154,0.0,-999.0,82,-99.99,,,0.00,weatherlink.com 1.10,2013-06-11 09:16:00,
2013-06-11 02:31:00,56.9,52.0,29.94,SSE,154,0.0,-999.0,83,-99.99,,,0.00,weatherlink.com 1.10,2013-06-11 09:31:00,
2013-06-11 02:46:00,57.0,52.0,29.93,SSE,154,0.0,-999.0,84,-99.99,,,0.00,weatherlink.com 1.10,2013-06-11 09:46:00,
2013-06-11 03:01:00,56.9,52.0,29.93,SSE,154,0.0,-999.0,84,-99.99,,,0.00,weatherlink.com 1.10,2013-06-11 10:01:00,
2013-06-11 03:16:00,56.9,52.0,29.93,SSE,154,0.0,-999.0,84,-99.99,,,0.00,weatherlink.com 1.10,2013-06-11 10:16:00,
2013-06-11 03:31:00,56.9,52.0,29.93,SSE,154,0.0,-999.0,84,-99.99,,,0.00,weatherlink.com 1.10,2013-06-11 10:31:00,
2013-06-11 03:46:00,56.7,52.0,29.93,SSE,154,0.0,-999.0,84,-99.99,,,0.00,weatherlink.com 1.10,2013-06-11 10:46:00,
2013-06-11 04:01:00,56.9,52.0,29.92,SSE,154,0.0,-999.0,84,-99.99,,,0.00,weatherlink.com 1.10,2013-06-11 11:01:00,
2013-06-11 04:16:00,56.9,53.0,29.93,SSE,154,0.0,-999.0,85,-99.99,,,0.00,weatherlink.com 1.10,2013-06-11 11:16:00,
2013-06-11 04:31:00,56.9,53.0,29.93,SSE,154,0.0,-999.0,85,-99.99,,,0.00,weatherlink.com 1.10,2013-06-11 11:31:00,
2013-06-11 04:46:00,56.9,53.0,29.93,SSE,154,0.0,-999.0,85,-99.99,,,0.00,weatherlink.com 1.10,2013-06-11 11:46:00,
2013-06-11 05:31:00,56.9,53.0,29.93,SSE,154,0.0,-999.0,85,-99.99,,,0.00,weatherlink.com 1.10,2013-06-11 12:31:00,
2013-06-11 05:46:00,56.9,53.0,29.93,SSE,154,0.0,-999.0,85,-99.99,,,0.00,weatherlink.com 1.10,2013-06-11 12:46:00,
2013-06-11 06:01:00,56.9,53.0,29.94,West,262,0.0,-999.0,86,-99.99,,,0.00,weatherlink.com 1.10,2013-06-11 13:01:00,
2013-06-11 06:16:00,56.9,53.0,29.94,West,262,0.0,-999.0,85,-99.99,,,0.00,weatherlink.com 1.10,2013-06-11 13:16:00,
2013-06-11 06:46:00,57.0,53.0,29.95,West,262,0.0,-999.0,85,-99.99,,,0.00,weatherlink.com 1.10,2013-06-11 13:46:00,
2013-06-11 07:01:00,57.2,52.0,29.95,West,262,0.0,-999.0,84,-99.99,,,0.00,weatherlink.com 1.10,2013-06-11 14:01:00,
2013-06-11 07:16:00,57.3,53.0,29.95,West,262,0.0,-999.0,84,-99.99,,,0.00,weatherlink.com 1.10,2013-06-11 14:16:00,
2013-06-11 07:31:00,57.6,53.0,29.95,West,262,0.0,-999.0,84,-99.99,,,0.00,weatherlink.com 1.10,2013-06-11 14:31:00,
2013-06-11 07:46:00,57.8,53.0,29.95,South,189,0.0,-999.0,83,-99.99,,,0.00,weatherlink.com 1.10,2013-06-11 14:46:00,
2013-06-11 08:16:00,57.8,52.0,29.96,WSW,250,0.0,-999.0,82,-99.99,,,0.00,weatherlink.com 1.10,2013-06-11 15:16:00,
2013-06-11 08:31:00,58.0,53.0,29.97,West,273,0.0,-999.0,83,-99.99,,,0.00,weatherlink.com 1.10,2013-06-11 15:31:00,
2013-06-11 08:46:00,58.0,53.0,29.98,West,271,0.0,-999.0,82,-99.99,,,0.00,weatherlink.com 1.10,2013-06-11 15:46:00,
2013-06-11 09:01:00,58.3,53.0,29.98,West,271,0.0,-999.0,83,-99.99,,,0.00,weatherlink.com 1.10,2013-06-11 16:01:00,
2013-06-11 09:31:00,58.9,53.0,29.98,East,96,0.0,-999.0,82,-99.99,,,0.00,weatherlink.com 1.10,2013-06-11 16:31:00,
2013-06-11 09:46:00,59.2,54.0,29.99,South,188,0.0,-999.0,82,-99.99,,,0.00,weatherlink.com 1.10,2013-06-11 16:46:00,
2013-06-11 10:01:00,59.5,53.0,29.98,South,178,1.0,-999.0,79,-99.99,,,0.00,weatherlink.com 1.10,2013-06-11 17:01:00,
2013-06-11 10:16:00,60.4,54.0,29.98,South,181,0.0,-999.0,78,-99.99,,,0.00,weatherlink.com 1.10,2013-06-11 17:16:00,
2013-06-11 10:31:00,61.8,53.0,29.98,NW,304,1.0,-999.0,74,-99.99,,,0.00,weatherlink.com 1.10,2013-06-11 17:31:00,
2013-06-11 10:46:00,63.2,53.0,29.98,SW,217,1.0,-999.0,70,-99.99,,,0.00,weatherlink.com 1.10,2013-06-11 17:46:00,
2013-06-11 11:01:00,62.9,53.0,29.98,SSW,212,0.0,-999.0,69,-99.99,,,0.00,weatherlink.com 1.10,2013-06-11 18:01:00,
2013-06-11 11:16:00,63.7,52.0,29.99,SSW,201,0.0,-999.0,67,-99.99,,,0.00,weatherlink.com 1.10,2013-06-11 18:16:00,
2013-06-11 11:47:00,65.2,53.0,29.99,SW,225,0.0,-999.0,64,-99.99,,,0.00,weatherlink.com 1.10,2013-06-11 18:47:00,
2013-06-11 12:02:00,65.2,53.0,29.98,SW,219,2.0,-999.0,65,-99.99,,,0.00,weatherlink.com 1.10,2013-06-11 19:02:00,
2013-06-11 12:17:00,67.1,53.0,29.99,WSW,250,0.0,-999.0,62,-99.99,,,0.00,weatherlink.com 1.10,2013-06-11 19:17:00,
2013-06-11 12:32:00,67.3,53.0,29.98,SSE,152,0.0,-999.0,60,-99.99,,,0.00,weatherlink.com 1.10,2013-06-11 19:32:00,
2013-06-11 12:46:00,68.1,52.0,29.98,SW,230,0.0,-999.0,57,-99.99,,,0.00,weatherlink.com 1.10,2013-06-11 19:46:00,
2013-06-11 13:01:00,67.9,52.0,29.98,WSW,256,2.0,-999.0,58,-99.99,,,0.00,weatherlink.com 1.10,2013-06-11 20:01:00,
2013-06-11 13:17:00,67.9,53.0,29.98,NW,318,0.0,-999.0,59,-99.99,,,0.00,weatherlink.com 1.10,2013-06-11 20:17:00,
2013-06-11 13:32:00,68.9,53.0,29.97,SW,229,0.0,-999.0,58,-99.99,,,0.00,weatherlink.com 1.10,2013-06-11 20:32:00,
2013-06-11 13:47:00,69.6,52.0,29.97,SW,229,0.0,-999.0,53,-99.99,,,0.00,weatherlink.com 1.10,2013-06-11 20:47:00,
2013-06-11 14:02:00,69.9,52.0,29.96,WSW,254,2.0,-999.0,54,-99.99,,,0.00,weatherlink.com 1.10,2013-06-11 21:02:00,
2013-06-11 14:17:00,69.8,53.0,29.96,SW,235,0.0,-999.0,56,-99.99,,,0.00,weatherlink.com 1.10,2013-06-11 21:17:00,
2013-06-11 14:32:00,69.3,52.0,29.95,East,98,0.0,-999.0,55,-99.99,,,0.00,weatherlink.com 1.10,2013-06-11 21:32:00,
2013-06-11 14:47:00,69.1,54.0,29.95,WSW,253,1.0,-999.0,58,-99.99,,,0.00,weatherlink.com 1.10,2013-06-11 21:47:00,
2013-06-11 15:02:00,68.9,53.0,29.95,SW,236,0.0,-999.0,57,-99.99,,,0.00,weatherlink.com 1.10,2013-06-11 22:02:00,
2013-06-11 15:17:00,69.6,54.0,29.95,WSW,242,3.0,-999.0,57,-99.99,,,0.00,weatherlink.com 1.10,2013-06-11 22:17:00,
2013-06-11 15:32:00,69.8,54.0,29.95,SSW,204,0.0,-999.0,57,-99.99,,,0.00,weatherlink.com 1.10,2013-06-11 22:32:00,
2013-06-11 15:47:00,69.1,54.0,29.95,SE,130,0.0,-999.0,58,-99.99,,,0.00,weatherlink.com 1.10,2013-06-11 22:47:00,
2013-06-11 16:02:00,68.6,52.0,29.95,SSW,198,1.0,-999.0,56,-99.99,,,0.00,weatherlink.com 1.10,2013-06-11 23:02:00,
2013-06-11 16:18:00,67.6,54.0,29.95,West,280,1.0,-999.0,61,-99.99,,,0.00,weatherlink.com 1.10,2013-06-11 23:18:00,
2013-06-11 16:35:00,68.9,53.0,29.94,SW,217,0.0,-999.0,57,-99.99,,,0.00,weatherlink.com 1.10,2013-06-11 23:35:00,
2013-06-11 16:48:00,68.1,53.0,29.94,SW,227,1.0,-999.0,58,-99.99,,,0.00,weatherlink.com 1.10,2013-06-11 23:48:00,
2013-06-11 17:03:00,66.8,52.0,29.94,WSW,238,1.0,-999.0,60,-99.99,,,0.00,weatherlink.com 1.10,2013-06-12 00:03:00,
2013-06-11 17:18:00,67.4,52.0,29.94,SE,136,0.0,-999.0,59,-99.99,,,0.00,weatherlink.com 1.10,2013-06-12 00:18:00,
2013-06-11 17:34:00,66.9,52.0,29.94,West,259,4.0,-999.0,59,-99.99,,,0.00,weatherlink.com 1.10,2013-06-12 00:34:00,
2013-06-11 17:48:00,65.5,52.0,29.93,SE,135,0.0,-999.0,62,-99.99,,,0.00,weatherlink.com 1.10,2013-06-12 00:48:00,
2013-06-11 18:04:00,65.0,52.0,29.93,East,94,1.0,-999.0,62,-99.99,,,0.00,weatherlink.com 1.10,2013-06-12 01:04:00,
2013-06-11 18:18:00,65.0,51.0,29.93,SW,227,0.0,-999.0,61,-99.99,,,0.00,weatherlink.com 1.10,2013-06-12 01:18:00,
2013-06-11 18:34:00,65.6,51.0,29.92,WSW,249,1.0,-999.0,60,-99.99,,,0.00,weatherlink.com 1.10,2013-06-12 01:34:00,
2013-06-11 18:48:00,66.0,51.0,29.91,South,180,0.0,-999.0,59,-99.99,,,0.00,weatherlink.com 1.10,2013-06-12 01:48:00,
2013-06-11 19:05:00,64.5,51.0,29.91,SW,218,0.0,-999.0,62,-99.99,,,0.00,weatherlink.com 1.10,2013-06-12 02:05:00,
2013-06-11 19:18:00,64.5,51.0,29.91,SW,219,0.0,-999.0,62,-99.99,,,0.00,weatherlink.com 1.10,2013-06-12 02:18:00,
2013-06-11 19:34:00,64.8,52.0,29.91,SW,219,0.0,-999.0,63,-99.99,,,0.00,weatherlink.com 1.10,2013-06-12 02:34:00,
2013-06-11 19:48:00,64.5,52.0,29.90,SSW,202,0.0,-999.0,64,-99.99,,,0.00,weatherlink.com 1.10,2013-06-12 02:48:00,
2013-06-11 20:04:00,63.7,51.0,29.90,SSW,202,0.0,-999.0,64,-99.99,,,0.00,weatherlink.com 1.10,2013-06-12 03:04:00,
2013-06-11 20:18:00,63.1,51.0,29.90,SSW,202,0.0,-999.0,66,-99.99,,,0.00,weatherlink.com 1.10,2013-06-12 03:18:00,
2013-06-11 20:34:00,62.6,51.0,29.90,South,186,0.0,-999.0,66,-99.99,,,0.00,weatherlink.com 1.10,2013-06-12 03:34:00,
2013-06-11 20:48:00,62.1,51.0,29.90,SSW,197,0.0,-999.0,66,-99.99,,,0.00,weatherlink.com 1.10,2013-06-12 03:48:00,
2013-06-11 21:04:00,61.6,50.0,29.90,SSW,198,0.0,-999.0,67,-99.99,,,0.00,weatherlink.com 1.10,2013-06-12 04:04:00,
2013-06-11 21:19:00,61.2,51.0,29.90,SSW,210,0.0,-999.0,69,-99.99,,,0.00,weatherlink.com 1.10,2013-06-12 04:19:00,
2013-06-11 21:34:00,60.7,51.0,29.90,South,189,0.0,-999.0,70,-99.99,,,0.00,weatherlink.com 1.10,2013-06-12 04:34:00,
2013-06-11 21:48:00,60.2,51.0,29.91,SW,222,0.0,-999.0,71,-99.99,,,0.00,weatherlink.com 1.10,2013-06-12 04:48:00,
2013-06-11 22:03:00,59.8,51.0,29.92,WSW,241,0.0,-999.0,73,-99.99,,,0.00,weatherlink.com 1.10,2013-06-12 05:03:00,
2013-06-11 22:18:00,59.3,51.0,29.92,SE,144,0.0,-999.0,73,-99.99,,,0.00,weatherlink.com 1.10,2013-06-12 05:18:00,
2013-06-11 22:33:00,59.0,51.0,29.92,SSE,153,0.0,-999.0,74,-99.99,,,0.00,weatherlink.com 1.10,2013-06-12 05:33:00,
2013-06-11 22:48:00,58.7,50.0,29.92,South,175,0.0,-999.0,74,-99.99,,,0.00,weatherlink.com 1.10,2013-06-12 05:48:00,
2013-06-11 23:03:00,58.4,51.0,29.91,South,172,0.0,-999.0,75,-99.99,,,0.00,weatherlink.com 1.10,2013-06-12 06:03:00,
2013-06-11 23:18:00,57.8,50.0,29.92,South,172,0.0,-999.0,76,-99.99,,,0.00,weatherlink.com 1.10,2013-06-12 06:18:00,
2013-06-11 23:33:00,57.2,50.0,29.92,South,172,0.0,-999.0,78,-99.99,,,0.00,weatherlink.com 1.10,2013-06-12 06:33:00,
2013-06-11 23:48:00,56.7,50.0,29.92,South,172,0.0,-999.0,78,-99.99,,,0.00,weatherlink.com 1.10,2013-06-12 06:48:00,